sensor_id;sensor_type;location;lat;lon;timestamp;P1;durP1;ratioP1;P2;durP2;ratioP2
8574;SDS011;4325;42.520;27.448;2023-06-26T00:01:34;3.33;;;2.77;;
8574;SDS011;4325;42.520;27.448;2023-06-26T00:04:01;3.20;;;2.80;;
8574;SDS011;4325;42.520;27.448;2023-06-26T00:06:28;3.00;;;2.53;;
8574;SDS011;4325;42.520;27.448;2023-06-26T00:08:55;3.47;;;2.80;;
8574;SDS011;4325;42.520;27.448;2023-06-26T00:11:23;2.93;;;2.57;;
8574;SDS011;4325;42.520;27.448;2023-06-26T00:13:53;3.70;;;2.93;;
8574;SDS011;4325;42.520;27.448;2023-06-26T00:16:20;6.50;;;2.73;;
8574;SDS011;4325;42.520;27.448;2023-06-26T00:18:47;3.03;;;2.83;;
8574;SDS011;4325;42.520;27.448;2023-06-26T00:21:14;6.73;;;3.43;;
8574;SDS011;4325;42.520;27.448;2023-06-26T00:23:41;3.47;;;2.53;;
8574;SDS011;4325;42.520;27.448;2023-06-26T00:26:08;2.60;;;2.40;;
8574;SDS011;4325;42.520;27.448;2023-06-26T00:28:35;2.70;;;2.23;;
8574;SDS011;4325;42.520;27.448;2023-06-26T00:31:04;4.60;;;2.30;;
8574;SDS011;4325;42.520;27.448;2023-06-26T00:33:31;2.93;;;2.70;;
8574;SDS011;4325;42.520;27.448;2023-06-26T00:35:58;2.67;;;2.20;;
8574;SDS011;4325;42.520;27.448;2023-06-26T00:38:25;2.47;;;2.20;;
8574;SDS011;4325;42.520;27.448;2023-06-26T00:40:52;3.13;;;2.57;;
8574;SDS011;4325;42.520;27.448;2023-06-26T00:43:19;4.50;;;2.70;;
8574;SDS011;4325;42.520;27.448;2023-06-26T00:45:47;6.23;;;2.67;;
8574;SDS011;4325;42.520;27.448;2023-06-26T00:48:15;3.20;;;2.33;;
8574;SDS011;4325;42.520;27.448;2023-06-26T00:50:42;2.93;;;2.63;;
8574;SDS011;4325;42.520;27.448;2023-06-26T00:53:09;7.13;;;2.70;;
8574;SDS011;4325;42.520;27.448;2023-06-26T00:55:37;4.40;;;2.70;;
8574;SDS011;4325;42.520;27.448;2023-06-26T00:58:04;3.17;;;2.80;;
8574;SDS011;4325;42.520;27.448;2023-06-26T01:00:32;3.00;;;2.63;;
8574;SDS011;4325;42.520;27.448;2023-06-26T01:02:59;3.67;;;2.80;;
8574;SDS011;4325;42.520;27.448;2023-06-26T01:05:27;4.70;;;3.00;;
8574;SDS011;4325;42.520;27.448;2023-06-26T01:07:55;3.00;;;2.27;;
8574;SDS011;4325;42.520;27.448;2023-06-26T01:10:23;5.67;;;3.20;;
8574;SDS011;4325;42.520;27.448;2023-06-26T01:12:52;3.27;;;2.80;;
8574;SDS011;4325;42.520;27.448;2023-06-26T01:15:19;4.50;;;2.93;;
8574;SDS011;4325;42.520;27.448;2023-06-26T01:17:46;3.83;;;3.13;;
8574;SDS011;4325;42.520;27.448;2023-06-26T01:20:15;4.87;;;3.30;;
8574;SDS011;4325;42.520;27.448;2023-06-26T01:22:49;4.53;;;3.20;;
8574;SDS011;4325;42.520;27.448;2023-06-26T01:25:29;7.80;;;3.20;;
8574;SDS011;4325;42.520;27.448;2023-06-26T01:28:05;5.07;;;3.00;;
8574;SDS011;4325;42.520;27.448;2023-06-26T01:30:32;4.97;;;3.27;;
8574;SDS011;4325;42.520;27.448;2023-06-26T01:33:01;4.70;;;3.27;;
8574;SDS011;4325;42.520;27.448;2023-06-26T01:35:29;3.57;;;2.63;;
8574;SDS011;4325;42.520;27.448;2023-06-26T01:38:10;3.43;;;2.57;;
8574;SDS011;4325;42.520;27.448;2023-06-26T01:40:39;3.43;;;2.97;;
8574;SDS011;4325;42.520;27.448;2023-06-26T01:43:09;3.70;;;3.13;;
8574;SDS011;4325;42.520;27.448;2023-06-26T01:45:41;5.80;;;3.70;;
8574;SDS011;4325;42.520;27.448;2023-06-26T01:48:10;6.60;;;3.20;;
8574;SDS011;4325;42.520;27.448;2023-06-26T01:50:42;3.27;;;2.77;;
8574;SDS011;4325;42.520;27.448;2023-06-26T01:53:11;6.10;;;3.50;;
8574;SDS011;4325;42.520;27.448;2023-06-26T01:55:42;3.37;;;2.80;;
8574;SDS011;4325;42.520;27.448;2023-06-26T01:58:14;3.57;;;2.93;;
8574;SDS011;4325;42.520;27.448;2023-06-26T02:00:42;5.20;;;3.40;;
8574;SDS011;4325;42.520;27.448;2023-06-26T02:03:09;4.30;;;3.70;;
8574;SDS011;4325;42.520;27.448;2023-06-26T02:05:36;5.17;;;3.40;;
8574;SDS011;4325;42.520;27.448;2023-06-26T02:08:03;5.70;;;3.17;;
8574;SDS011;4325;42.520;27.448;2023-06-26T02:10:31;5.57;;;3.23;;
8574;SDS011;4325;42.520;27.448;2023-06-26T02:12:57;3.53;;;3.20;;
8574;SDS011;4325;42.520;27.448;2023-06-26T02:15:26;4.57;;;2.83;;
8574;SDS011;4325;42.520;27.448;2023-06-26T02:17:53;4.67;;;3.67;;
8574;SDS011;4325;42.520;27.448;2023-06-26T02:20:19;5.53;;;3.97;;
8574;SDS011;4325;42.520;27.448;2023-06-26T02:22:46;3.77;;;3.37;;
8574;SDS011;4325;42.520;27.448;2023-06-26T02:25:13;3.43;;;3.00;;
8574;SDS011;4325;42.520;27.448;2023-06-26T02:27:40;7.27;;;3.67;;
8574;SDS011;4325;42.520;27.448;2023-06-26T02:30:08;6.70;;;3.63;;
8574;SDS011;4325;42.520;27.448;2023-06-26T02:32:37;6.10;;;4.00;;
8574;SDS011;4325;42.520;27.448;2023-06-26T02:35:04;6.00;;;3.57;;
8574;SDS011;4325;42.520;27.448;2023-06-26T02:37:32;4.00;;;3.60;;
8574;SDS011;4325;42.520;27.448;2023-06-26T02:39:59;4.23;;;3.80;;
8574;SDS011;4325;42.520;27.448;2023-06-26T02:42:26;4.63;;;3.80;;
8574;SDS011;4325;42.520;27.448;2023-06-26T02:44:53;5.93;;;4.10;;
8574;SDS011;4325;42.520;27.448;2023-06-26T02:47:19;4.33;;;3.23;;
8574;SDS011;4325;42.520;27.448;2023-06-26T02:49:48;4.57;;;3.67;;
8574;SDS011;4325;42.520;27.448;2023-06-26T02:52:15;4.93;;;3.50;;
8574;SDS011;4325;42.520;27.448;2023-06-26T02:54:42;6.70;;;4.10;;
8574;SDS011;4325;42.520;27.448;2023-06-26T02:57:08;4.90;;;3.97;;
8574;SDS011;4325;42.520;27.448;2023-06-26T02:59:35;5.53;;;3.67;;
8574;SDS011;4325;42.520;27.448;2023-06-26T03:02:02;5.13;;;3.20;;
8574;SDS011;4325;42.520;27.448;2023-06-26T03:04:29;7.10;;;4.80;;
8574;SDS011;4325;42.520;27.448;2023-06-26T03:06:58;5.23;;;3.97;;
8574;SDS011;4325;42.520;27.448;2023-06-26T03:09:25;3.60;;;3.10;;
8574;SDS011;4325;42.520;27.448;2023-06-26T03:11:51;4.33;;;3.67;;
8574;SDS011;4325;42.520;27.448;2023-06-26T03:14:20;6.20;;;3.93;;
8574;SDS011;4325;42.520;27.448;2023-06-26T03:16:47;3.87;;;3.27;;
8574;SDS011;4325;42.520;27.448;2023-06-26T03:19:16;8.10;;;5.07;;
8574;SDS011;4325;42.520;27.448;2023-06-26T03:21:43;4.10;;;3.63;;
8574;SDS011;4325;42.520;27.448;2023-06-26T03:24:11;6.90;;;3.73;;
8574;SDS011;4325;42.520;27.448;2023-06-26T03:26:38;8.57;;;4.40;;
8574;SDS011;4325;42.520;27.448;2023-06-26T03:29:05;10.03;;;4.03;;
8574;SDS011;4325;42.520;27.448;2023-06-26T03:31:32;4.63;;;3.70;;
8574;SDS011;4325;42.520;27.448;2023-06-26T03:33:59;5.53;;;3.50;;
8574;SDS011;4325;42.520;27.448;2023-06-26T03:36:25;4.90;;;3.60;;
8574;SDS011;4325;42.520;27.448;2023-06-26T03:38:52;6.10;;;3.67;;
8574;SDS011;4325;42.520;27.448;2023-06-26T03:41:23;7.47;;;4.73;;
8574;SDS011;4325;42.520;27.448;2023-06-26T03:43:50;5.67;;;4.23;;
8574;SDS011;4325;42.520;27.448;2023-06-26T03:46:17;9.30;;;4.57;;
8574;SDS011;4325;42.520;27.448;2023-06-26T03:48:44;5.47;;;4.27;;
8574;SDS011;4325;42.520;27.448;2023-06-26T03:51:11;5.93;;;3.70;;
8574;SDS011;4325;42.520;27.448;2023-06-26T03:53:38;7.07;;;4.23;;
8574;SDS011;4325;42.520;27.448;2023-06-26T03:56:05;7.30;;;5.30;;
8574;SDS011;4325;42.520;27.448;2023-06-26T03:58:33;7.80;;;6.07;;
8574;SDS011;4325;42.520;27.448;2023-06-26T04:01:00;5.90;;;4.50;;
8574;SDS011;4325;42.520;27.448;2023-06-26T04:03:27;8.30;;;5.10;;
8574;SDS011;4325;42.520;27.448;2023-06-26T04:05:54;7.63;;;5.73;;
8574;SDS011;4325;42.520;27.448;2023-06-26T04:08:21;11.93;;;4.63;;
8574;SDS011;4325;42.520;27.448;2023-06-26T04:10:50;5.10;;;4.07;;
8574;SDS011;4325;42.520;27.448;2023-06-26T04:13:17;5.80;;;4.53;;
8574;SDS011;4325;42.520;27.448;2023-06-26T04:15:45;5.77;;;4.33;;
8574;SDS011;4325;42.520;27.448;2023-06-26T04:18:12;5.93;;;4.63;;
8574;SDS011;4325;42.520;27.448;2023-06-26T04:20:40;6.97;;;4.53;;
8574;SDS011;4325;42.520;27.448;2023-06-26T04:23:27;4.33;;;3.70;;
8574;SDS011;4325;42.520;27.448;2023-06-26T04:25:54;4.83;;;4.10;;
8574;SDS011;4325;42.520;27.448;2023-06-26T04:28:23;4.60;;;3.17;;
8574;SDS011;4325;42.520;27.448;2023-06-26T04:30:51;4.40;;;4.00;;
8574;SDS011;4325;42.520;27.448;2023-06-26T04:33:18;4.80;;;3.63;;
8574;SDS011;4325;42.520;27.448;2023-06-26T04:35:46;6.80;;;3.63;;
8574;SDS011;4325;42.520;27.448;2023-06-26T04:38:13;4.90;;;3.73;;
8574;SDS011;4325;42.520;27.448;2023-06-26T04:40:40;4.03;;;3.53;;
8574;SDS011;4325;42.520;27.448;2023-06-26T04:43:07;6.17;;;4.63;;
8574;SDS011;4325;42.520;27.448;2023-06-26T04:45:34;5.40;;;3.77;;
8574;SDS011;4325;42.520;27.448;2023-06-26T04:48:03;4.13;;;3.50;;
8574;SDS011;4325;42.520;27.448;2023-06-26T04:50:31;3.93;;;3.20;;
8574;SDS011;4325;42.520;27.448;2023-06-26T04:52:58;4.77;;;3.73;;
8574;SDS011;4325;42.520;27.448;2023-06-26T04:55:26;7.43;;;3.83;;
8574;SDS011;4325;42.520;27.448;2023-06-26T04:57:53;7.47;;;3.90;;
8574;SDS011;4325;42.520;27.448;2023-06-26T05:00:22;4.77;;;3.50;;
8574;SDS011;4325;42.520;27.448;2023-06-26T05:02:50;4.17;;;3.77;;
8574;SDS011;4325;42.520;27.448;2023-06-26T05:05:27;4.77;;;3.90;;
8574;SDS011;4325;42.520;27.448;2023-06-26T05:07:54;3.80;;;3.50;;
8574;SDS011;4325;42.520;27.448;2023-06-26T05:10:22;5.00;;;3.57;;
8574;SDS011;4325;42.520;27.448;2023-06-26T05:12:49;5.10;;;3.93;;
8574;SDS011;4325;42.520;27.448;2023-06-26T05:15:16;6.70;;;3.77;;
8574;SDS011;4325;42.520;27.448;2023-06-26T05:17:43;5.53;;;4.33;;
8574;SDS011;4325;42.520;27.448;2023-06-26T05:20:10;5.97;;;4.17;;
8574;SDS011;4325;42.520;27.448;2023-06-26T05:22:38;4.23;;;3.83;;
8574;SDS011;4325;42.520;27.448;2023-06-26T05:25:06;5.57;;;3.50;;
8574;SDS011;4325;42.520;27.448;2023-06-26T05:27:36;4.57;;;4.03;;
8574;SDS011;4325;42.520;27.448;2023-06-26T05:30:04;5.40;;;4.03;;
8574;SDS011;4325;42.520;27.448;2023-06-26T05:32:32;5.47;;;4.87;;
8574;SDS011;4325;42.520;27.448;2023-06-26T05:35:01;5.00;;;4.53;;
8574;SDS011;4325;42.520;27.448;2023-06-26T05:37:30;4.80;;;4.13;;
8574;SDS011;4325;42.520;27.448;2023-06-26T05:40:01;7.73;;;3.67;;
8574;SDS011;4325;42.520;27.448;2023-06-26T05:42:30;10.30;;;3.90;;
8574;SDS011;4325;42.520;27.448;2023-06-26T05:44:57;4.97;;;4.00;;
8574;SDS011;4325;42.520;27.448;2023-06-26T05:47:24;5.67;;;4.00;;
8574;SDS011;4325;42.520;27.448;2023-06-26T05:49:51;6.00;;;4.43;;
8574;SDS011;4325;42.520;27.448;2023-06-26T05:52:18;4.67;;;3.90;;
8574;SDS011;4325;42.520;27.448;2023-06-26T05:54:46;5.63;;;4.30;;
8574;SDS011;4325;42.520;27.448;2023-06-26T05:57:15;8.23;;;4.57;;
8574;SDS011;4325;42.520;27.448;2023-06-26T05:59:42;4.63;;;4.13;;
8574;SDS011;4325;42.520;27.448;2023-06-26T06:02:10;7.10;;;4.10;;
8574;SDS011;4325;42.520;27.448;2023-06-26T06:04:38;7.13;;;4.50;;
8574;SDS011;4325;42.520;27.448;2023-06-26T06:07:05;6.10;;;4.80;;
8574;SDS011;4325;42.520;27.448;2023-06-26T06:09:31;6.27;;;4.57;;
8574;SDS011;4325;42.520;27.448;2023-06-26T06:11:59;8.70;;;6.37;;
8574;SDS011;4325;42.520;27.448;2023-06-26T06:14:28;7.77;;;4.87;;
8574;SDS011;4325;42.520;27.448;2023-06-26T06:16:55;5.97;;;4.80;;
8574;SDS011;4325;42.520;27.448;2023-06-26T06:19:22;5.23;;;4.73;;
8574;SDS011;4325;42.520;27.448;2023-06-26T06:21:49;9.27;;;4.67;;
8574;SDS011;4325;42.520;27.448;2023-06-26T06:24:16;6.80;;;5.33;;
8574;SDS011;4325;42.520;27.448;2023-06-26T06:26:43;8.83;;;5.03;;
8574;SDS011;4325;42.520;27.448;2023-06-26T06:29:10;4.90;;;4.13;;
8574;SDS011;4325;42.520;27.448;2023-06-26T06:31:38;6.40;;;4.80;;
8574;SDS011;4325;42.520;27.448;2023-06-26T06:34:05;5.53;;;4.60;;
8574;SDS011;4325;42.520;27.448;2023-06-26T06:36:32;6.20;;;4.60;;
8574;SDS011;4325;42.520;27.448;2023-06-26T06:38:59;8.77;;;4.83;;
8574;SDS011;4325;42.520;27.448;2023-06-26T06:41:26;9.37;;;5.47;;
8574;SDS011;4325;42.520;27.448;2023-06-26T06:43:52;6.73;;;4.77;;
8574;SDS011;4325;42.520;27.448;2023-06-26T06:46:19;9.80;;;4.93;;
8574;SDS011;4325;42.520;27.448;2023-06-26T06:48:48;5.83;;;5.23;;
8574;SDS011;4325;42.520;27.448;2023-06-26T06:51:15;5.67;;;4.57;;
8574;SDS011;4325;42.520;27.448;2023-06-26T06:53:42;5.73;;;4.60;;
8574;SDS011;4325;42.520;27.448;2023-06-26T06:56:09;10.17;;;4.83;;
8574;SDS011;4325;42.520;27.448;2023-06-26T06:58:36;6.43;;;5.10;;
8574;SDS011;4325;42.520;27.448;2023-06-26T07:01:03;12.83;;;4.43;;
8574;SDS011;4325;42.520;27.448;2023-06-26T07:03:30;6.00;;;4.73;;
8574;SDS011;4325;42.520;27.448;2023-06-26T07:05:58;5.97;;;4.83;;
8574;SDS011;4325;42.520;27.448;2023-06-26T07:08:25;9.30;;;5.37;;
8574;SDS011;4325;42.520;27.448;2023-06-26T07:10:52;7.40;;;5.03;;
8574;SDS011;4325;42.520;27.448;2023-06-26T07:13:18;5.90;;;4.70;;
8574;SDS011;4325;42.520;27.448;2023-06-26T07:15:45;5.33;;;4.83;;
8574;SDS011;4325;42.520;27.448;2023-06-26T07:18:13;8.57;;;4.70;;
8574;SDS011;4325;42.520;27.448;2023-06-26T07:20:40;6.93;;;4.83;;
8574;SDS011;4325;42.520;27.448;2023-06-26T07:23:08;8.37;;;4.80;;
8574;SDS011;4325;42.520;27.448;2023-06-26T07:25:36;6.10;;;4.37;;
8574;SDS011;4325;42.520;27.448;2023-06-26T07:28:02;8.63;;;5.90;;
8574;SDS011;4325;42.520;27.448;2023-06-26T07:30:29;6.03;;;4.73;;
8574;SDS011;4325;42.520;27.448;2023-06-26T07:32:56;5.47;;;4.93;;
8574;SDS011;4325;42.520;27.448;2023-06-26T07:35:23;5.87;;;4.80;;
8574;SDS011;4325;42.520;27.448;2023-06-26T07:37:52;6.00;;;4.93;;
8574;SDS011;4325;42.520;27.448;2023-06-26T07:40:21;5.43;;;4.10;;
8574;SDS011;4325;42.520;27.448;2023-06-26T07:42:48;5.80;;;3.63;;
8574;SDS011;4325;42.520;27.448;2023-06-26T07:45:15;9.03;;;3.73;;
8574;SDS011;4325;42.520;27.448;2023-06-26T07:47:42;6.37;;;4.40;;
8574;SDS011;4325;42.520;27.448;2023-06-26T07:50:09;8.23;;;4.60;;
8574;SDS011;4325;42.520;27.448;2023-06-26T07:52:36;6.97;;;4.73;;
8574;SDS011;4325;42.520;27.448;2023-06-26T07:55:04;7.77;;;4.70;;
8574;SDS011;4325;42.520;27.448;2023-06-26T07:57:32;8.23;;;5.03;;
8574;SDS011;4325;42.520;27.448;2023-06-26T07:59:59;6.10;;;5.23;;
8574;SDS011;4325;42.520;27.448;2023-06-26T08:02:26;10.97;;;6.27;;
8574;SDS011;4325;42.520;27.448;2023-06-26T08:04:54;12.83;;;5.83;;
8574;SDS011;4325;42.520;27.448;2023-06-26T08:07:20;5.80;;;4.70;;
8574;SDS011;4325;42.520;27.448;2023-06-26T08:09:47;6.73;;;5.87;;
8574;SDS011;4325;42.520;27.448;2023-06-26T08:12:14;5.53;;;4.47;;
8574;SDS011;4325;42.520;27.448;2023-06-26T08:14:43;10.60;;;5.17;;
8574;SDS011;4325;42.520;27.448;2023-06-26T08:17:10;5.57;;;4.17;;
8574;SDS011;4325;42.520;27.448;2023-06-26T08:19:37;5.33;;;4.03;;
8574;SDS011;4325;42.520;27.448;2023-06-26T08:22:04;6.07;;;4.97;;
8574;SDS011;4325;42.520;27.448;2023-06-26T08:24:31;7.93;;;5.73;;
8574;SDS011;4325;42.520;27.448;2023-06-26T08:26:58;7.57;;;4.73;;
8574;SDS011;4325;42.520;27.448;2023-06-26T08:29:25;5.60;;;4.20;;
8574;SDS011;4325;42.520;27.448;2023-06-26T08:31:53;6.37;;;4.83;;
8574;SDS011;4325;42.520;27.448;2023-06-26T08:34:20;5.17;;;4.47;;
8574;SDS011;4325;42.520;27.448;2023-06-26T08:36:47;7.93;;;4.87;;
8574;SDS011;4325;42.520;27.448;2023-06-26T08:39:14;8.70;;;5.00;;
8574;SDS011;4325;42.520;27.448;2023-06-26T08:41:41;9.10;;;5.70;;
8574;SDS011;4325;42.520;27.448;2023-06-26T08:44:08;6.87;;;4.97;;
8574;SDS011;4325;42.520;27.448;2023-06-26T08:46:36;5.80;;;3.97;;
8574;SDS011;4325;42.520;27.448;2023-06-26T08:49:07;5.30;;;4.60;;
8574;SDS011;4325;42.520;27.448;2023-06-26T08:51:49;5.23;;;4.07;;
8574;SDS011;4325;42.520;27.448;2023-06-26T08:54:23;11.70;;;4.90;;
8574;SDS011;4325;42.520;27.448;2023-06-26T08:56:54;12.43;;;4.60;;
8574;SDS011;4325;42.520;27.448;2023-06-26T08:59:23;6.73;;;4.10;;
8574;SDS011;4325;42.520;27.448;2023-06-26T09:01:50;4.90;;;4.37;;
8574;SDS011;4325;42.520;27.448;2023-06-26T09:04:19;5.87;;;4.53;;
8574;SDS011;4325;42.520;27.448;2023-06-26T09:06:46;8.70;;;4.87;;
8574;SDS011;4325;42.520;27.448;2023-06-26T09:09:13;7.13;;;4.87;;
8574;SDS011;4325;42.520;27.448;2023-06-26T09:11:40;6.47;;;4.47;;
8574;SDS011;4325;42.520;27.448;2023-06-26T09:14:07;6.80;;;4.43;;
8574;SDS011;4325;42.520;27.448;2023-06-26T09:16:39;9.93;;;5.13;;
8574;SDS011;4325;42.520;27.448;2023-06-26T09:19:08;8.33;;;4.37;;
8574;SDS011;4325;42.520;27.448;2023-06-26T09:21:39;6.50;;;5.17;;
8574;SDS011;4325;42.520;27.448;2023-06-26T09:24:07;4.80;;;4.10;;
8574;SDS011;4325;42.520;27.448;2023-06-26T09:26:35;8.73;;;5.00;;
8574;SDS011;4325;42.520;27.448;2023-06-26T09:29:03;6.57;;;4.27;;
8574;SDS011;4325;42.520;27.448;2023-06-26T09:31:32;4.30;;;3.67;;
8574;SDS011;4325;42.520;27.448;2023-06-26T09:33:59;12.57;;;4.63;;
8574;SDS011;4325;42.520;27.448;2023-06-26T09:36:27;4.33;;;3.93;;
8574;SDS011;4325;42.520;27.448;2023-06-26T09:38:59;6.57;;;4.83;;
8574;SDS011;4325;42.520;27.448;2023-06-26T09:41:26;5.20;;;4.37;;
8574;SDS011;4325;42.520;27.448;2023-06-26T09:43:53;7.37;;;4.77;;
8574;SDS011;4325;42.520;27.448;2023-06-26T09:46:24;5.43;;;3.60;;
8574;SDS011;4325;42.520;27.448;2023-06-26T09:48:57;9.83;;;4.63;;
8574;SDS011;4325;42.520;27.448;2023-06-26T09:51:24;4.87;;;4.07;;
8574;SDS011;4325;42.520;27.448;2023-06-26T09:53:52;5.30;;;4.40;;
8574;SDS011;4325;42.520;27.448;2023-06-26T09:56:20;10.17;;;4.30;;
8574;SDS011;4325;42.520;27.448;2023-06-26T09:58:47;4.33;;;3.80;;
8574;SDS011;4325;42.520;27.448;2023-06-26T10:01:15;6.63;;;3.57;;
8574;SDS011;4325;42.520;27.448;2023-06-26T10:03:44;3.73;;;3.33;;
8574;SDS011;4325;42.520;27.448;2023-06-26T10:06:11;3.90;;;3.50;;
8574;SDS011;4325;42.520;27.448;2023-06-26T10:08:39;4.03;;;3.50;;
8574;SDS011;4325;42.520;27.448;2023-06-26T10:11:08;6.07;;;4.27;;
8574;SDS011;4325;42.520;27.448;2023-06-26T10:13:42;4.37;;;3.97;;
8574;SDS011;4325;42.520;27.448;2023-06-26T10:16:11;3.70;;;3.40;;
8574;SDS011;4325;42.520;27.448;2023-06-26T10:18:39;4.40;;;3.83;;
8574;SDS011;4325;42.520;27.448;2023-06-26T10:21:07;3.93;;;3.47;;
8574;SDS011;4325;42.520;27.448;2023-06-26T10:23:36;5.23;;;3.90;;
8574;SDS011;4325;42.520;27.448;2023-06-26T10:26:06;4.90;;;4.00;;
8574;SDS011;4325;42.520;27.448;2023-06-26T10:28:34;4.30;;;3.50;;
8574;SDS011;4325;42.520;27.448;2023-06-26T10:31:05;4.37;;;3.90;;
8574;SDS011;4325;42.520;27.448;2023-06-26T10:33:34;6.23;;;4.20;;
8574;SDS011;4325;42.520;27.448;2023-06-26T10:36:14;5.73;;;3.83;;
8574;SDS011;4325;42.520;27.448;2023-06-26T10:38:48;5.23;;;4.00;;
8574;SDS011;4325;42.520;27.448;2023-06-26T10:41:16;6.47;;;4.30;;
8574;SDS011;4325;42.520;27.448;2023-06-26T10:43:48;5.00;;;3.20;;
8574;SDS011;4325;42.520;27.448;2023-06-26T10:46:17;3.60;;;3.30;;
8574;SDS011;4325;42.520;27.448;2023-06-26T10:51:27;5.13;;;3.30;;
8574;SDS011;4325;42.520;27.448;2023-06-26T10:53:54;4.87;;;3.50;;
8574;SDS011;4325;42.520;27.448;2023-06-26T10:56:21;4.47;;;3.60;;
8574;SDS011;4325;42.520;27.448;2023-06-26T10:59:11;7.33;;;4.63;;
8574;SDS011;4325;42.520;27.448;2023-06-26T11:01:42;5.00;;;4.13;;
8574;SDS011;4325;42.520;27.448;2023-06-26T11:04:11;4.57;;;3.80;;
8574;SDS011;4325;42.520;27.448;2023-06-26T11:06:40;5.70;;;4.37;;
8574;SDS011;4325;42.520;27.448;2023-06-26T11:09:07;8.03;;;4.20;;
8574;SDS011;4325;42.520;27.448;2023-06-26T11:11:56;4.37;;;3.77;;
8574;SDS011;4325;42.520;27.448;2023-06-26T11:14:27;9.80;;;4.23;;
8574;SDS011;4325;42.520;27.448;2023-06-26T11:16:56;5.83;;;4.40;;
8574;SDS011;4325;42.520;27.448;2023-06-26T11:19:24;8.90;;;4.43;;
8574;SDS011;4325;42.520;27.448;2023-06-26T11:21:57;12.40;;;5.03;;
8574;SDS011;4325;42.520;27.448;2023-06-26T11:24:25;8.27;;;5.20;;
8574;SDS011;4325;42.520;27.448;2023-06-26T11:26:52;6.80;;;5.30;;
8574;SDS011;4325;42.520;27.448;2023-06-26T11:29:19;8.20;;;5.10;;
8574;SDS011;4325;42.520;27.448;2023-06-26T11:31:46;9.83;;;6.07;;
8574;SDS011;4325;42.520;27.448;2023-06-26T11:34:14;8.27;;;5.57;;
8574;SDS011;4325;42.520;27.448;2023-06-26T11:36:42;7.57;;;5.20;;
8574;SDS011;4325;42.520;27.448;2023-06-26T11:39:11;6.47;;;5.50;;
8574;SDS011;4325;42.520;27.448;2023-06-26T11:41:39;7.30;;;5.40;;
8574;SDS011;4325;42.520;27.448;2023-06-26T11:44:07;6.00;;;4.60;;
8574;SDS011;4325;42.520;27.448;2023-06-26T11:46:35;7.87;;;5.33;;
8574;SDS011;4325;42.520;27.448;2023-06-26T11:49:03;5.70;;;4.77;;
8574;SDS011;4325;42.520;27.448;2023-06-26T11:51:32;5.20;;;4.70;;
8574;SDS011;4325;42.520;27.448;2023-06-26T11:54:00;8.27;;;5.50;;
8574;SDS011;4325;42.520;27.448;2023-06-26T11:56:29;6.43;;;4.77;;
8574;SDS011;4325;42.520;27.448;2023-06-26T11:58:57;8.77;;;5.33;;
8574;SDS011;4325;42.520;27.448;2023-06-26T12:01:25;7.50;;;5.43;;
8574;SDS011;4325;42.520;27.448;2023-06-26T12:03:57;6.07;;;4.63;;
8574;SDS011;4325;42.520;27.448;2023-06-26T12:06:26;4.97;;;4.20;;
8574;SDS011;4325;42.520;27.448;2023-06-26T12:08:55;6.83;;;4.60;;
8574;SDS011;4325;42.520;27.448;2023-06-26T12:11:23;6.60;;;4.93;;
8574;SDS011;4325;42.520;27.448;2023-06-26T12:13:51;9.57;;;4.60;;
8574;SDS011;4325;42.520;27.448;2023-06-26T12:16:18;9.73;;;5.43;;
8574;SDS011;4325;42.520;27.448;2023-06-26T12:18:45;4.83;;;4.13;;
8574;SDS011;4325;42.520;27.448;2023-06-26T12:21:27;6.80;;;4.67;;
8574;SDS011;4325;42.520;27.448;2023-06-26T12:23:59;5.00;;;4.27;;
8574;SDS011;4325;42.520;27.448;2023-06-26T12:26:26;8.27;;;5.13;;
8574;SDS011;4325;42.520;27.448;2023-06-26T12:29:01;5.60;;;5.00;;
8574;SDS011;4325;42.520;27.448;2023-06-26T12:31:28;6.23;;;4.43;;
8574;SDS011;4325;42.520;27.448;2023-06-26T12:33:55;7.93;;;5.07;;
8574;SDS011;4325;42.520;27.448;2023-06-26T12:36:22;6.27;;;4.50;;
8574;SDS011;4325;42.520;27.448;2023-06-26T12:38:49;5.40;;;4.10;;
8574;SDS011;4325;42.520;27.448;2023-06-26T12:41:18;8.37;;;5.60;;
8574;SDS011;4325;42.520;27.448;2023-06-26T12:43:45;7.60;;;4.97;;
8574;SDS011;4325;42.520;27.448;2023-06-26T12:46:13;9.57;;;5.17;;
8574;SDS011;4325;42.520;27.448;2023-06-26T12:48:40;7.67;;;5.17;;
8574;SDS011;4325;42.520;27.448;2023-06-26T12:51:09;7.50;;;5.33;;
8574;SDS011;4325;42.520;27.448;2023-06-26T12:53:37;8.33;;;5.90;;
8574;SDS011;4325;42.520;27.448;2023-06-26T12:56:05;7.27;;;4.80;;
8574;SDS011;4325;42.520;27.448;2023-06-26T12:58:34;5.70;;;4.13;;
8574;SDS011;4325;42.520;27.448;2023-06-26T13:01:02;5.60;;;4.43;;
8574;SDS011;4325;42.520;27.448;2023-06-26T13:03:30;5.23;;;4.43;;
8574;SDS011;4325;42.520;27.448;2023-06-26T13:05:57;9.53;;;5.37;;
8574;SDS011;4325;42.520;27.448;2023-06-26T13:08:24;5.80;;;4.37;;
8574;SDS011;4325;42.520;27.448;2023-06-26T13:10:51;4.60;;;4.10;;
8574;SDS011;4325;42.520;27.448;2023-06-26T13:13:18;7.90;;;5.53;;
8574;SDS011;4325;42.520;27.448;2023-06-26T13:15:46;4.47;;;3.73;;
8574;SDS011;4325;42.520;27.448;2023-06-26T13:18:13;9.70;;;5.13;;
8574;SDS011;4325;42.520;27.448;2023-06-26T13:20:40;4.47;;;3.83;;
8574;SDS011;4325;42.520;27.448;2023-06-26T13:23:07;9.17;;;5.20;;
8574;SDS011;4325;42.520;27.448;2023-06-26T13:25:34;12.27;;;4.93;;
8574;SDS011;4325;42.520;27.448;2023-06-26T13:28:01;5.30;;;4.63;;
8574;SDS011;4325;42.520;27.448;2023-06-26T13:30:28;4.33;;;3.70;;
8574;SDS011;4325;42.520;27.448;2023-06-26T13:32:57;5.90;;;4.57;;
8574;SDS011;4325;42.520;27.448;2023-06-26T13:35:24;8.10;;;3.93;;
8574;SDS011;4325;42.520;27.448;2023-06-26T13:37:51;5.77;;;4.77;;
8574;SDS011;4325;42.520;27.448;2023-06-26T13:40:18;4.67;;;3.63;;
8574;SDS011;4325;42.520;27.448;2023-06-26T13:42:45;4.73;;;3.47;;
8574;SDS011;4325;42.520;27.448;2023-06-26T13:45:12;8.00;;;3.83;;
8574;SDS011;4325;42.520;27.448;2023-06-26T13:47:39;4.93;;;3.60;;
8574;SDS011;4325;42.520;27.448;2023-06-26T13:50:08;5.00;;;3.87;;
8574;SDS011;4325;42.520;27.448;2023-06-26T13:52:36;4.60;;;3.57;;
8574;SDS011;4325;42.520;27.448;2023-06-26T13:55:03;4.07;;;3.20;;
8574;SDS011;4325;42.520;27.448;2023-06-26T13:57:31;5.07;;;3.50;;
8574;SDS011;4325;42.520;27.448;2023-06-26T13:59:58;4.70;;;3.73;;
8574;SDS011;4325;42.520;27.448;2023-06-26T14:02:25;4.53;;;3.73;;
8574;SDS011;4325;42.520;27.448;2023-06-26T14:04:52;3.70;;;3.33;;
8574;SDS011;4325;42.520;27.448;2023-06-26T14:07:21;4.07;;;2.93;;
8574;SDS011;4325;42.520;27.448;2023-06-26T14:09:47;4.47;;;3.40;;
8574;SDS011;4325;42.520;27.448;2023-06-26T14:12:14;3.60;;;3.23;;
8574;SDS011;4325;42.520;27.448;2023-06-26T14:14:42;3.30;;;2.83;;
8574;SDS011;4325;42.520;27.448;2023-06-26T14:17:08;5.13;;;2.87;;
8574;SDS011;4325;42.520;27.448;2023-06-26T14:19:41;4.23;;;2.90;;
8574;SDS011;4325;42.520;27.448;2023-06-26T14:22:08;3.17;;;2.63;;
8574;SDS011;4325;42.520;27.448;2023-06-26T14:24:36;2.87;;;2.30;;
8574;SDS011;4325;42.520;27.448;2023-06-26T14:27:03;4.33;;;3.47;;
8574;SDS011;4325;42.520;27.448;2023-06-26T14:29:31;5.13;;;3.23;;
8574;SDS011;4325;42.520;27.448;2023-06-26T14:31:57;5.53;;;3.10;;
8574;SDS011;4325;42.520;27.448;2023-06-26T14:34:24;3.90;;;3.10;;
8574;SDS011;4325;42.520;27.448;2023-06-26T14:36:51;2.53;;;2.33;;
8574;SDS011;4325;42.520;27.448;2023-06-26T14:39:18;5.23;;;3.20;;
8574;SDS011;4325;42.520;27.448;2023-06-26T14:41:46;3.00;;;2.70;;
8574;SDS011;4325;42.520;27.448;2023-06-26T14:44:13;3.50;;;2.97;;
8574;SDS011;4325;42.520;27.448;2023-06-26T14:46:40;3.70;;;3.10;;
8574;SDS011;4325;42.520;27.448;2023-06-26T14:49:07;4.63;;;3.20;;
8574;SDS011;4325;42.520;27.448;2023-06-26T14:51:34;3.43;;;3.13;;
8574;SDS011;4325;42.520;27.448;2023-06-26T14:54:01;3.10;;;2.80;;
8574;SDS011;4325;42.520;27.448;2023-06-26T14:56:28;3.20;;;2.60;;
8574;SDS011;4325;42.520;27.448;2023-06-26T14:58:56;3.33;;;2.80;;
8574;SDS011;4325;42.520;27.448;2023-06-26T15:01:23;3.87;;;3.20;;
8574;SDS011;4325;42.520;27.448;2023-06-26T15:03:50;3.67;;;3.10;;
8574;SDS011;4325;42.520;27.448;2023-06-26T15:06:17;5.33;;;3.50;;
8574;SDS011;4325;42.520;27.448;2023-06-26T15:08:43;3.97;;;3.27;;